createdAt,value
2018-08-22T00:02:41.848Z,8.60
2018-08-22T00:07:45.174Z,7.35
2018-08-22T00:12:48.487Z,7.57
2018-08-22T00:17:51.760Z,8.15
2018-08-22T00:22:55.025Z,7.70
2018-08-22T00:27:58.324Z,7.08
2018-08-22T00:33:01.608Z,7.50
2018-08-22T00:38:05.037Z,8.17
2018-08-22T00:43:08.446Z,8.13
2018-08-22T00:48:12.835Z,7.97
2018-08-22T00:53:16.123Z,8.40
2018-08-22T00:58:22.852Z,8.13
2018-08-22T01:03:26.087Z,9.00
2018-08-22T01:08:29.529Z,8.38
2018-08-22T01:13:33.119Z,8.25
2018-08-22T01:18:39.008Z,9.30
2018-08-22T01:23:44.603Z,8.40
2018-08-22T01:28:48.082Z,9.50
2018-08-22T01:33:51.431Z,8.40
2018-08-22T01:38:54.914Z,9.35
2018-08-22T01:44:04.731Z,9.68
2018-08-22T01:49:08.146Z,9.40
2018-08-22T01:54:11.475Z,9.70
2018-08-22T01:59:15.691Z,9.38
2018-08-22T02:04:19.089Z,9.40
2018-08-22T02:09:23.151Z,9.40
2018-08-22T02:14:26.450Z,9.35
2018-08-22T02:19:30.754Z,9.28
2018-08-22T02:24:34.108Z,9.13
2018-08-22T02:29:38.091Z,8.63
2018-08-22T02:34:42.017Z,9.33
2018-08-22T02:39:45.351Z,8.78
2018-08-22T02:44:49.428Z,8.90
2018-08-22T02:49:53.084Z,8.83
2018-08-22T02:54:56.817Z,8.90
2018-08-22T03:00:00.084Z,10.30
2018-08-22T03:05:03.411Z,9.00
2018-08-22T03:10:06.907Z,9.67
2018-08-22T03:15:14.458Z,9.40
2018-08-22T03:20:18.651Z,10.00
2018-08-22T03:25:24.423Z,9.35
2018-08-22T03:30:27.710Z,9.90
2018-08-22T03:35:30.981Z,9.30
2018-08-22T03:40:34.292Z,9.73
2018-08-22T03:45:37.567Z,9.70
2018-08-22T03:50:40.870Z,10.13
2018-08-22T03:55:44.179Z,9.63
2018-08-22T04:00:48.313Z,9.00
2018-08-22T04:05:51.624Z,9.10
2018-08-22T04:10:58.256Z,10.20
2018-08-22T04:16:02.686Z,9.80
2018-08-22T04:21:06.075Z,9.80
2018-08-22T04:26:14.298Z,9.30
2018-08-22T04:31:17.650Z,9.98
2018-08-22T04:36:20.975Z,10.33
2018-08-22T04:41:24.247Z,10.65
2018-08-22T04:46:27.648Z,10.37
2018-08-22T04:51:31.045Z,10.05
2018-08-22T04:56:34.473Z,10.90
2018-08-22T05:01:38.767Z,9.98
2018-08-22T05:06:42.071Z,10.03
2018-08-22T05:11:45.425Z,10.30
2018-08-22T05:16:49.058Z,10.20
2018-08-22T05:21:56.486Z,10.10
2018-08-22T05:26:59.827Z,9.90
2018-08-22T05:32:03.096Z,10.40
2018-08-22T05:37:06.455Z,9.63
2018-08-22T05:42:09.882Z,9.70
2018-08-22T05:47:13.250Z,10.70
2018-08-22T05:52:16.834Z,9.78
2018-08-22T05:57:20.158Z,10.25
2018-08-22T06:02:23.437Z,8.90
2018-08-22T06:07:26.757Z,9.53
2018-08-22T06:12:30.113Z,9.40
2018-08-22T06:17:33.445Z,9.13
2018-08-22T06:22:36.732Z,8.40
2018-08-22T06:27:40.248Z,8.55
2018-08-22T06:32:43.568Z,8.33
2018-08-22T06:37:47.023Z,7.62
2018-08-22T06:42:50.328Z,8.50
2018-08-22T06:47:53.694Z,7.58
2018-08-22T06:52:56.995Z,7.90
2018-08-22T06:58:00.284Z,8.80
2018-08-22T07:03:04.241Z,9.30
2018-08-22T07:08:07.752Z,8.50
2018-08-22T07:13:12.471Z,7.60
2018-08-22T07:18:19.074Z,8.95
2018-08-22T07:23:22.451Z,7.53
2018-08-22T07:28:25.792Z,7.45
2018-08-22T07:33:30.236Z,7.90
2018-08-22T07:38:34.213Z,7.10
2018-08-22T07:43:37.685Z,6.80
2018-08-22T07:48:40.953Z,8.33
2018-08-22T07:53:44.341Z,7.00
2018-08-22T07:58:52.747Z,7.43
2018-08-22T08:03:56.046Z,7.87
2018-08-22T08:08:59.421Z,7.45
2018-08-22T08:14:02.700Z,6.78
2018-08-22T08:19:06.751Z,7.00
2018-08-22T08:24:10.060Z,7.37
2018-08-22T08:29:30.292Z,7.08
2018-08-22T08:34:33.925Z,6.40
2018-08-22T08:39:37.251Z,6.53
2018-08-22T08:44:41.139Z,11.55
2018-08-22T08:49:44.600Z,5.83
2018-08-22T08:54:48.840Z,6.20
2018-08-22T08:59:55.699Z,6.10
2018-08-22T09:05:04.478Z,6.20
2018-08-22T09:10:07.824Z,6.30
2018-08-22T09:15:11.147Z,8.23
2018-08-22T09:20:14.419Z,8.03
2018-08-22T09:25:17.706Z,6.10
2018-08-22T09:30:21.036Z,5.70
2018-08-22T09:35:24.315Z,5.80
2018-08-22T09:40:27.747Z,7.60
2018-08-22T09:45:31.307Z,5.70
2018-08-22T09:50:34.765Z,7.03
2018-08-22T09:55:38.074Z,5.40
2018-08-22T10:00:46.960Z,5.97
2018-08-22T10:05:50.214Z,5.17
2018-08-22T10:10:53.481Z,5.00
2018-08-22T10:15:56.801Z,5.23
2018-08-22T10:21:00.164Z,4.90
2018-08-22T10:26:03.496Z,5.10
2018-08-22T10:31:06.896Z,5.87
2018-08-22T10:36:10.456Z,5.20
2018-08-22T10:41:13.751Z,5.00
2018-08-22T10:46:17.045Z,4.50
2018-08-22T10:51:20.367Z,4.72
2018-08-22T10:56:23.699Z,4.70
2018-08-22T11:01:26.984Z,4.70
2018-08-22T11:06:30.484Z,4.60
2018-08-22T11:11:33.783Z,4.35
2018-08-22T11:16:37.125Z,5.50
2018-08-22T11:21:51.697Z,4.60
2018-08-22T11:27:06.467Z,5.25
2018-08-22T11:32:21.132Z,4.20
2018-08-22T11:37:25.003Z,6.55
2018-08-22T11:42:28.617Z,4.62
2018-08-22T11:47:33.047Z,4.60
2018-08-22T11:52:37.985Z,4.75
2018-08-22T11:57:41.909Z,5.10
2018-08-22T12:02:45.558Z,3.92
2018-08-22T12:07:48.956Z,5.50
2018-08-22T12:12:57.370Z,5.33
2018-08-22T12:18:01.122Z,4.60
2018-08-22T12:23:08.997Z,5.67
2018-08-22T12:28:12.290Z,4.53
2018-08-22T12:33:15.714Z,5.00
2018-08-22T12:38:19.041Z,4.20
2018-08-22T12:43:22.337Z,4.50
2018-08-22T12:48:25.625Z,5.10
2018-08-22T12:53:32.797Z,4.63
2018-08-22T12:58:36.123Z,6.50
2018-08-22T13:03:39.602Z,3.80
2018-08-22T13:08:42.918Z,5.60
2018-08-22T13:13:46.405Z,4.50
2018-08-22T13:18:49.964Z,4.47
2018-08-22T13:23:53.375Z,5.40
2018-08-22T13:28:56.829Z,4.20
2018-08-22T13:34:00.132Z,4.50
2018-08-22T13:39:04.858Z,4.20
2018-08-22T13:44:08.760Z,5.70
2018-08-22T13:49:12.199Z,3.90
2018-08-22T13:54:15.658Z,4.87
2018-08-22T13:59:19.261Z,4.05
2018-08-22T14:04:22.845Z,5.10
2018-08-22T14:09:26.697Z,3.00
2018-08-22T14:14:30.016Z,3.50
2018-08-22T14:19:33.381Z,2.80
2018-08-22T14:24:36.985Z,2.90
2018-08-22T14:29:40.326Z,2.67
2018-08-22T14:34:43.867Z,3.30
2018-08-22T14:39:47.241Z,2.80
2018-08-22T14:44:50.638Z,5.00
2018-08-22T14:49:53.912Z,3.22
2018-08-22T14:54:57.443Z,2.70
2018-08-22T15:00:01.571Z,4.22
2018-08-22T15:05:05.034Z,3.67
2018-08-22T15:10:08.539Z,2.72
2018-08-22T15:15:11.899Z,2.80
2018-08-22T15:20:15.205Z,2.90
2018-08-22T15:25:18.594Z,5.62
2018-08-22T15:30:22.001Z,2.90
2018-08-22T15:35:25.518Z,4.17
2018-08-22T15:40:28.915Z,2.70
2018-08-22T15:45:32.244Z,3.62
2018-08-22T15:50:35.685Z,3.17
2018-08-22T15:55:39.105Z,3.10
2018-08-22T16:00:47.915Z,3.40
2018-08-22T16:05:54.392Z,3.30
2018-08-22T16:10:57.740Z,3.27
2018-08-22T16:16:06.759Z,3.80
2018-08-22T16:21:21.755Z,4.87
2018-08-22T16:26:25.614Z,3.20
2018-08-22T16:31:37.650Z,4.25
2018-08-22T16:36:41.931Z,3.90
2018-08-22T16:41:45.475Z,4.60
2018-08-22T16:46:49.217Z,3.50
2018-08-22T16:51:52.673Z,3.20
2018-08-22T16:56:56.120Z,3.87
2018-08-22T17:02:02.003Z,6.17
2018-08-22T17:07:11.267Z,3.40
2018-08-22T17:12:15.156Z,3.60
2018-08-22T17:17:18.669Z,3.20
2018-08-22T17:22:22.654Z,4.83
2018-08-22T17:27:26.160Z,3.20
2018-08-22T17:32:31.628Z,3.60
2018-08-22T17:37:35.270Z,3.80
2018-08-22T17:42:38.738Z,3.33
2018-08-22T17:47:42.065Z,3.83
2018-08-22T17:52:45.970Z,3.60
2018-08-22T17:58:09.962Z,3.72
2018-08-22T18:03:18.504Z,4.97
2018-08-22T18:08:22.496Z,6.63
2018-08-22T18:13:32.051Z,4.20
2018-08-22T18:24:15.797Z,6.50
2018-08-22T18:30:14.628Z,5.10
2018-08-22T18:41:26.629Z,5.00
2018-08-22T18:46:33.308Z,6.08
2018-08-22T18:51:37.294Z,4.65
2018-08-22T18:56:41.911Z,4.80
2018-08-22T19:01:47.129Z,4.58
2018-08-22T19:06:50.924Z,4.72
2018-08-22T19:11:56.337Z,5.83
2018-08-22T19:17:05.869Z,4.58
2018-08-22T19:22:17.853Z,5.20
2018-08-22T19:27:33.392Z,5.40
2018-08-22T19:37:45.116Z,5.50
2018-08-22T19:42:55.075Z,6.00
2018-08-22T19:48:03.237Z,8.78
2018-08-22T19:53:10.797Z,5.95
2018-08-22T19:58:24.574Z,5.93
2018-08-22T20:03:35.683Z,5.80
2018-08-22T20:08:45.005Z,7.00
2018-08-22T20:14:05.688Z,6.60
2018-08-22T20:19:27.284Z,6.90
2018-08-22T20:30:12.763Z,6.25
2018-08-22T20:35:21.502Z,6.20
2018-08-22T20:40:25.025Z,7.03
2018-08-22T20:45:34.708Z,9.50
2018-08-22T20:50:40.988Z,6.95
2018-08-22T20:55:44.667Z,7.60
2018-08-22T21:00:48.244Z,8.00
2018-08-22T21:05:52.019Z,9.00
2018-08-22T21:10:56.244Z,6.30
2018-08-22T21:16:07.512Z,7.80
2018-08-22T21:26:50.057Z,6.50
2018-08-22T21:31:54.742Z,5.93
2018-08-22T21:36:58.322Z,6.00
2018-08-22T21:42:02.016Z,6.30
2018-08-22T21:47:09.457Z,7.35
2018-08-22T21:52:12.948Z,6.10
2018-08-22T21:57:16.285Z,6.10
2018-08-22T22:02:20.485Z,6.45
2018-08-22T22:07:23.959Z,7.30
2018-08-22T22:12:32.863Z,6.70
2018-08-22T22:17:36.343Z,6.17
2018-08-22T22:22:40.040Z,5.90
2018-08-22T22:27:45.071Z,5.70
2018-08-22T22:32:48.711Z,6.20
2018-08-22T22:37:54.300Z,5.73
2018-08-22T22:43:00.783Z,6.28
2018-08-22T22:48:05.739Z,5.83
2018-08-22T22:53:10.030Z,6.40
2018-08-22T22:58:17.110Z,6.30
2018-08-22T23:03:21.158Z,6.10
2018-08-22T23:08:25.318Z,5.77
2018-08-22T23:13:30.044Z,7.13
2018-08-22T23:18:36.820Z,6.00
2018-08-22T23:23:41.383Z,7.10
2018-08-22T23:28:48.356Z,6.33
2018-08-22T23:34:00.200Z,6.75
2018-08-22T23:39:06.394Z,6.60
2018-08-22T23:44:13.793Z,5.92
2018-08-22T23:49:20.293Z,5.90
2018-08-22T23:54:24.436Z,6.30
2018-08-22T23:59:27.726Z,5.80
